createdAt,value
2014-11-09T00:03:32.142Z,101108
2014-11-09T00:10:32.611Z,101108
2014-11-09T00:15:33.059Z,101108
2014-11-09T00:21:33.573Z,101125
2014-11-09T00:26:34.006Z,101116
2014-11-09T00:32:34.520Z,101128
2014-11-09T00:38:35.004Z,101113
2014-11-09T00:44:35.501Z,101110
2014-11-09T00:49:35.935Z,101096
2014-11-09T00:54:36.385Z,101107
2014-11-09T00:59:36.818Z,101088
2014-11-09T01:04:37.266Z,101093
2014-11-09T01:09:37.716Z,101087
2014-11-09T01:14:38.164Z,101093
2014-11-09T01:20:38.662Z,101087
2014-11-09T01:25:39.096Z,101101
2014-11-09T01:31:39.610Z,101096
2014-11-09T01:36:40.059Z,101090
2014-11-09T01:42:40.542Z,101078
2014-11-09T01:48:41.040Z,101070
2014-11-09T01:55:41.588Z,101069
2014-11-09T02:03:42.215Z,101087
2014-11-09T02:11:42.780Z,101078
2014-11-09T02:18:43.328Z,101066
2014-11-09T02:25:43.876Z,101063
2014-11-09T02:30:44.324Z,101075
2014-11-09T02:35:44.757Z,101072
2014-11-09T02:42:45.306Z,101090
2014-11-09T02:49:45.853Z,101087
2014-11-09T02:54:46.301Z,101078
2014-11-09T03:01:46.849Z,101075
2014-11-09T03:07:47.331Z,101072
2014-11-09T03:12:47.796Z,101084
2014-11-09T03:20:48.393Z,101072
2014-11-09T03:25:48.841Z,101095
2014-11-09T03:33:49.438Z,101078
2014-11-09T03:40:49.970Z,101078
2014-11-09T03:47:50.517Z,101077
2014-11-09T03:53:51.015Z,101075
2014-11-09T03:59:51.514Z,101060
2014-11-09T04:08:52.160Z,101077
2014-11-09T04:16:52.757Z,101077
2014-11-09T04:22:53.254Z,101080
2014-11-09T04:29:53.802Z,101057
2014-11-09T04:34:54.250Z,101060
2014-11-09T04:40:54.749Z,101048
2014-11-09T04:46:55.231Z,101062
2014-11-09T04:51:55.681Z,101045
2014-11-09T04:56:56.115Z,101042
2014-11-09T05:01:56.563Z,101042
2014-11-09T05:07:57.061Z,101027
2014-11-09T05:12:57.494Z,101033
2014-11-09T05:18:58.008Z,101024
2014-11-09T05:23:58.458Z,101024
2014-11-09T05:28:58.875Z,101024
2014-11-09T05:33:59.340Z,101015
2014-11-09T05:41:59.936Z,101027
2014-11-09T05:50:00.533Z,101039
2014-11-09T05:56:01.015Z,101030
2014-11-09T06:03:01.563Z,101047
2014-11-09T06:10:02.111Z,101050
2014-11-09T06:15:02.545Z,101047
2014-11-09T06:22:03.092Z,101050
2014-11-09T06:27:03.540Z,101044
2014-11-09T06:34:04.089Z,101039
2014-11-09T06:42:04.685Z,101044
2014-11-09T06:48:05.167Z,101082
2014-11-09T06:56:05.779Z,101079
2014-11-09T07:03:06.312Z,101082
2014-11-09T07:09:06.809Z,101082
2014-11-09T07:15:07.308Z,101082
2014-11-09T07:18:41.941Z,101076
2014-11-09T07:24:42.440Z,101073
2014-11-09T07:31:42.986Z,101079
2014-11-09T07:38:43.519Z,101085
2014-11-09T07:44:44.016Z,101088
2014-11-09T07:51:44.575Z,101077
2014-11-09T07:58:45.188Z,101050
2014-11-09T08:04:45.701Z,101053
2014-11-09T08:10:46.190Z,101071
2014-11-09T08:15:46.640Z,101071
2014-11-09T08:20:47.090Z,101062
2014-11-09T08:25:47.539Z,101086
2014-11-09T08:30:47.972Z,101071
2014-11-09T08:35:48.422Z,101083
2014-11-09T08:41:48.919Z,101074
2014-11-09T08:48:49.467Z,101062
2014-11-09T08:53:49.916Z,101065
2014-11-09T09:00:50.447Z,101062
2014-11-09T09:06:50.947Z,101059
2014-11-09T09:13:51.524Z,101068
2014-11-09T09:18:51.943Z,101062
2014-11-09T14:29:00.719Z,100811
2014-11-09T14:36:01.266Z,100822
2014-11-09T14:42:01.766Z,100828
2014-11-09T14:50:02.362Z,100828
2014-11-09T14:56:02.860Z,100814
2014-11-09T15:04:04.269Z,100819
2014-11-09T15:10:03.955Z,100819
2014-11-09T15:16:04.453Z,100825
2014-11-09T15:21:04.903Z,100805
2014-11-09T15:27:05.401Z,100828
2014-11-09T15:33:05.883Z,100817
2014-11-09T19:50:34.886Z,100845
2014-11-09T20:04:35.982Z,100854
2014-11-09T20:10:36.479Z,100878
2014-11-09T20:16:36.977Z,100893
2014-11-09T20:21:37.427Z,100896
2014-11-09T20:26:37.875Z,100904
2014-11-09T20:31:38.325Z,100913
2014-11-09T20:36:38.758Z,100895
2014-11-09T20:41:39.207Z,100883
2014-11-09T20:46:39.657Z,100884
2014-11-09T20:51:40.105Z,100878
2014-11-09T20:57:40.604Z,100872
2014-11-09T21:03:41.086Z,100848
2014-11-09T21:08:41.536Z,100829
2014-11-09T21:15:42.083Z,100866
2014-11-09T21:22:42.629Z,100881
2014-11-09T21:28:43.128Z,100883
2014-11-09T21:34:43.643Z,100869
2014-11-09T21:40:44.484Z,100872
2014-11-09T21:45:44.605Z,100872
2014-11-09T21:50:45.085Z,100874
2014-11-09T21:55:45.519Z,100869
2014-11-09T22:01:46.002Z,100866
2014-11-09T22:06:46.450Z,100868
2014-11-09T22:13:46.997Z,100877
2014-11-09T22:19:47.480Z,100880
2014-11-09T22:28:48.142Z,100877
2014-11-09T22:34:48.639Z,100903
2014-11-09T22:39:49.182Z,100895
2014-11-09T22:46:49.715Z,100883
2014-11-09T22:52:50.212Z,100874
2014-11-09T22:57:50.662Z,100856
2014-11-09T23:05:51.258Z,100859
2014-11-09T23:12:51.805Z,100877
2014-11-09T23:18:52.304Z,100918
2014-11-09T23:25:52.851Z,100912
2014-11-09T23:31:53.349Z,100921
2014-11-09T23:39:53.946Z,100909
2014-11-09T23:51:54.849Z,100888
2014-11-09T23:57:55.331Z,100900
